Time;durP1;ratioP1;P1;durP2;ratioP2;P2;SDS_P1;SDS_P2;PMS_P1;PMS_P2;Temp;Humidity;BMP_temperature;BMP_pressure;BME280_temperature;BME280_humidity;BME280_pressure;Samples;Min_cycle;Max_cycle;Signal;HPM_P1;HPM_P2
2022/02/12 00:04:43;;;;;;;1.85;0.93;;;17.60;58.20;;;;;;10413901;28;20112;-54
2022/02/12 00:09:43;;;;;;;3.13;1.35;;;17.50;58.20;;;;;;10414200;28;20030;-55
2022/02/12 00:14:44;;;;;;;2.35;0.82;;;17.50;58.20;;;;;;10413683;28;20133;-54
2022/02/12 00:19:45;;;;;;;3.33;1.35;;;17.50;58.20;;;;;;10411981;28;20537;-56
2022/02/12 00:24:46;;;;;;;3.78;1.60;;;17.50;58.10;;;;;;10413303;28;20104;-53
2022/02/12 00:29:46;;;;;;;3.15;1.30;;;17.50;58.10;;;;;;10386960;28;20060;-55
2022/02/12 00:34:47;;;;;;;2.08;1.33;;;17.50;58.00;;;;;;10422217;28;20194;-56
2022/02/12 00:39:48;;;;;;;3.80;1.58;;;17.50;58.00;;;;;;10420554;28;20493;-55
2022/02/12 00:44:49;;;;;;;2.50;1.20;;;17.50;58.10;;;;;;10417007;28;20036;-54
2022/02/12 00:49:50;;;;;;;2.13;1.10;;;17.50;58.10;;;;;;10411008;28;20484;-55
2022/02/12 00:54:50;;;;;;;2.88;1.50;;;17.50;57.90;;;;;;10394197;28;20175;-55
2022/02/12 00:59:51;;;;;;;2.38;1.38;;;17.50;57.90;;;;;;10411621;28;20036;-54
2022/02/12 01:04:52;;;;;;;2.35;1.55;;;17.50;57.90;;;;;;10412003;28;20112;-54
2022/02/12 01:09:52;;;;;;;3.45;1.45;;;17.50;57.90;;;;;;10412086;28;20104;-55
2022/02/12 01:14:53;;;;;;;2.75;1.48;;;17.60;57.70;;;;;;10411675;28;20034;-55
2022/02/12 01:19:54;;;;;;;1.95;1.30;;;17.60;57.60;;;;;;10411779;28;20036;-55
2022/02/12 01:24:54;;;;;;;3.30;1.48;;;17.60;57.70;;;;;;10411147;28;20397;-53
2022/02/12 01:29:55;;;;;;;3.10;1.58;;;17.60;57.70;;;;;;10411451;28;20521;-54
2022/02/12 01:34:56;;;;;;;3.22;1.40;;;17.60;57.70;;;;;;10434535;28;20078;-54
2022/02/12 01:39:57;;;;;;;3.08;1.50;;;17.60;57.60;;;;;;10416180;28;20039;-55
2022/02/12 01:45:01;;;;;;;3.55;1.65;;;17.50;57.60;;;;;;10410850;28;20324;-55
2022/02/12 01:50:02;;;;;;;3.15;1.70;;;17.60;57.50;;;;;;10394078;28;20042;-55
2022/02/12 01:55:05;;;;;;;2.72;1.40;;;17.60;57.60;;;;;;10403966;28;20091;-55
2022/02/12 02:00:10;;;;;;;2.50;1.30;;;17.60;57.60;;;;;;10410617;28;20025;-55
2022/02/12 02:05:15;;;;;;;3.33;1.63;;;17.60;57.50;;;;;;10411457;28;20033;-53
2022/02/12 02:10:16;;;;;;;2.72;1.50;;;17.60;57.50;;;;;;10417235;28;20033;-55
2022/02/12 02:15:17;;;;;;;3.20;1.73;;;17.60;57.40;;;;;;10400255;28;20033;-55
2022/02/12 02:20:18;;;;;;;3.25;1.40;;;17.60;57.40;;;;;;10434103;28;20413;-55
2022/02/12 02:25:19;;;;;;;2.78;1.65;;;17.60;57.50;;;;;;10432953;28;20041;-55
2022/02/12 02:30:22;;;;;;;2.15;1.27;;;17.50;57.40;;;;;;10433047;28;20045;-53
2022/02/12 02:35:25;;;;;;;3.03;1.70;;;17.50;57.40;;;;;;10459693;28;20497;-55
2022/02/12 02:40:26;;;;;;;2.95;1.35;;;17.50;57.40;;;;;;10417628;28;20060;-55
2022/02/12 02:45:27;;;;;;;3.50;1.77;;;17.60;57.30;;;;;;10416693;28;20030;-55
2022/02/12 02:56:05;;;;;;;2.92;1.55;;;17.50;57.20;;;;;;10415477;28;20037;-55
2022/02/12 03:01:12;;;;;;;2.65;1.60;;;17.50;57.20;;;;;;10415820;28;20032;-55
2022/02/12 03:06:15;;;;;;;4.70;1.67;;;17.60;57.20;;;;;;10416525;28;20037;-55
2022/02/12 03:11:17;;;;;;;3.22;1.38;;;17.50;57.10;;;;;;10415075;28;20417;-54
2022/02/12 03:16:18;;;;;;;3.05;1.60;;;17.50;57.10;;;;;;10416141;28;20427;-55
2022/02/12 03:21:19;;;;;;;2.65;1.52;;;17.50;57.10;;;;;;10415699;28;20029;-55
2022/02/12 03:26:20;;;;;;;5.50;2.33;;;17.50;57.10;;;;;;10431229;28;20025;-55
2022/02/12 03:31:21;;;;;;;3.63;2.00;;;17.50;57.00;;;;;;10415368;28;20041;-55
2022/02/12 03:36:22;;;;;;;3.30;1.65;;;17.50;57.10;;;;;;10440326;28;20033;-54
2022/02/12 03:41:24;;;;;;;3.15;1.95;;;17.50;57.10;;;;;;10413826;28;20036;-55
2022/02/12 03:46:24;;;;;;;3.95;1.70;;;17.60;57.10;;;;;;10414697;28;20506;-55
2022/02/12 03:51:25;;;;;;;3.35;1.73;;;17.50;57.10;;;;;;10414375;28;20037;-54
2022/02/12 03:56:26;;;;;;;3.03;1.73;;;17.60;57.00;;;;;;10414267;28;20116;-53
2022/02/12 04:01:26;;;;;;;3.72;1.80;;;17.60;56.90;;;;;;10414414;28;20097;-55
2022/02/12 04:06:27;;;;;;;2.53;1.60;;;17.60;56.90;;;;;;10413998;28;20132;-54
2022/02/12 04:11:28;;;;;;;3.25;2.03;;;17.60;56.90;;;;;;10429255;28;20083;-53
2022/02/12 04:16:29;;;;;;;2.63;1.55;;;17.60;57.00;;;;;;10413545;28;20033;-53
2022/02/12 04:21:29;;;;;;;3.00;1.80;;;17.60;57.10;;;;;;10413549;28;20025;-55
2022/02/12 04:26:30;;;;;;;3.03;1.65;;;17.50;57.20;;;;;;10413073;28;20041;-54
2022/02/12 04:31:31;;;;;;;3.10;1.92;;;17.60;57.40;;;;;;10411054;28;20071;-55
2022/02/12 04:36:32;;;;;;;2.13;1.30;;;17.50;57.40;;;;;;10449264;28;20163;-55
2022/02/12 04:41:32;;;;;;;3.00;1.42;;;17.50;57.60;;;;;;10428127;28;20108;-55
2022/02/12 04:46:33;;;;;;;3.88;1.60;;;17.50;57.30;;;;;;10411215;28;20041;-55
2022/02/12 04:51:34;;;;;;;3.92;1.98;;;17.50;57.20;;;;;;10411105;28;20032;-55
2022/02/12 04:56:35;;;;;;;3.55;1.50;;;17.50;57.20;;;;;;10412091;28;20088;-54
2022/02/12 05:01:35;;;;;;;2.30;1.60;;;17.60;57.10;;;;;;10411993;28;20098;-55
2022/02/12 05:06:37;;;;;;;2.70;1.60;;;17.60;57.00;;;;;;10411846;28;20041;-54
2022/02/12 05:11:38;;;;;;;5.00;1.80;;;17.50;57.00;;;;;;10402476;28;20029;-55
2022/02/12 05:16:39;;;;;;;3.70;2.22;;;17.50;57.00;;;;;;10385229;28;20037;-55
2022/02/12 05:21:40;;;;;;;3.17;1.65;;;17.50;57.00;;;;;;10411591;28;20478;-55
2022/02/12 05:26:41;;;;;;;3.28;1.88;;;17.50;57.10;;;;;;10410356;28;20041;-55
2022/02/12 05:31:42;;;;;;;3.15;1.75;;;17.50;57.00;;;;;;10410698;28;20137;-54
2022/02/12 05:36:43;;;;;;;2.13;1.42;;;17.50;57.10;;;;;;10433188;28;20072;-55
2022/02/12 05:41:43;;;;;;;2.83;1.65;;;17.60;57.20;;;;;;10413973;28;20482;-54
2022/02/12 05:46:44;;;;;;;3.65;2.15;;;17.60;57.10;;;;;;10418480;28;20120;-55
2022/02/12 05:51:45;;;;;;;3.95;1.63;;;17.60;57.10;;;;;;10419088;28;20033;-56
2022/02/12 05:56:45;;;;;;;3.05;1.80;;;17.60;57.10;;;;;;10417991;28;20045;-54
2022/02/12 06:01:47;;;;;;;3.08;2.03;;;17.60;57.20;;;;;;10418657;28;20167;-54
2022/02/12 06:06:48;;;;;;;3.03;1.33;;;17.60;57.20;;;;;;10418895;28;20029;-54
2022/02/12 06:11:48;;;;;;;2.47;1.65;;;17.60;57.80;;;;;;10418385;28;20118;-55
2022/02/12 06:16:49;;;;;;;3.13;1.55;;;17.50;57.20;;;;;;10418856;28;20053;-55
2022/02/12 06:21:50;;;;;;;2.28;1.50;;;17.60;57.20;;;;;;10412606;28;20036;-54
2022/02/12 06:26:56;;;;;;;2.45;1.50;;;17.60;57.30;;;;;;10418576;28;20470;-55
2022/02/12 06:31:57;;;;;;;2.40;1.60;;;17.50;57.20;;;;;;10419455;28;20061;-55
2022/02/12 06:36:57;;;;;;;3.42;1.90;;;17.60;57.30;;;;;;10448633;28;20561;-55
2022/02/12 06:41:58;;;;;;;2.13;1.30;;;17.60;57.30;;;;;;10417770;28;20104;-53
2022/02/12 06:46:59;;;;;;;3.50;1.80;;;17.60;57.30;;;;;;10417699;28;20052;-55
2022/02/12 06:52:01;;;;;;;2.33;1.42;;;17.60;57.30;;;;;;10414743;28;20565;-55
2022/02/12 06:57:02;;;;;;;3.53;1.60;;;17.60;57.30;;;;;;10415232;28;20604;-55
2022/02/12 07:02:03;;;;;;;3.20;1.60;;;17.60;57.30;;;;;;10418523;28;20079;-55
2022/02/12 07:07:04;;;;;;;3.13;1.75;;;17.60;57.30;;;;;;10433755;28;20124;-55
2022/02/12 07:12:05;;;;;;;2.35;1.40;;;17.60;57.30;;;;;;10433094;28;20504;-55
2022/02/12 07:17:05;;;;;;;3.42;1.80;;;17.60;57.40;;;;;;10417746;28;20136;-55
2022/02/12 07:22:06;;;;;;;3.33;1.42;;;17.60;57.30;;;;;;10417532;28;20047;-54
2022/02/12 07:27:07;;;;;;;1.83;1.27;;;17.60;57.40;;;;;;10416173;28;20112;-55
2022/02/12 07:32:07;;;;;;;3.47;1.60;;;17.60;57.30;;;;;;10433909;28;20033;-55
2022/02/12 07:37:08;;;;;;;1.90;1.13;;;17.60;57.30;;;;;;10426951;28;20026;-55
2022/02/12 07:42:09;;;;;;;2.65;1.58;;;17.60;57.30;;;;;;10416664;28;20029;-54
2022/02/12 07:47:10;;;;;;;2.92;1.90;;;17.60;57.90;;;;;;10416845;28;20105;-55
2022/02/12 07:52:10;;;;;;;1.90;1.40;;;17.60;57.20;;;;;;10416368;28;20109;-55
2022/02/12 07:57:11;;;;;;;2.83;1.52;;;17.50;57.90;;;;;;10415177;28;20021;-55
2022/02/12 08:02:12;;;;;;;3.20;1.83;;;17.60;57.20;;;;;;10415156;28;20025;-55
2022/02/12 08:07:28;;;;;;;2.42;1.40;;;17.60;57.20;;;;;;10416093;28;20044;-55
2022/02/12 08:12:28;;;;;;;2.53;1.35;;;17.60;57.90;;;;;;10415457;28;20041;-56
2022/02/12 08:17:29;;;;;;;2.42;1.40;;;17.60;57.30;;;;;;10414368;28;20126;-55
2022/02/12 08:22:30;;;;;;;3.30;1.25;;;17.60;57.30;;;;;;10414610;28;20045;-54
2022/02/12 08:27:31;;;;;;;2.28;1.30;;;17.60;57.40;;;;;;10415332;28;20168;-55
2022/02/12 08:32:32;;;;;;;2.55;1.60;;;17.60;57.40;;;;;;10396772;28;20363;-55
2022/02/12 08:37:32;;;;;;;1.85;1.15;;;17.60;57.40;;;;;;10414806;28;20026;-55
2022/02/12 08:42:34;;;;;;;3.10;1.45;;;17.60;57.50;;;;;;10413075;28;20175;-55
2022/02/12 08:47:36;;;;;;;2.83;1.52;;;17.50;57.50;;;;;;10413279;28;20513;-55
2022/02/12 08:52:41;;;;;;;2.63;1.52;;;17.60;57.60;;;;;;10412749;28;20483;-55
2022/02/12 08:57:42;;;;;;;2.88;1.23;;;17.60;57.50;;;;;;10429287;28;20051;-55
2022/02/12 09:02:43;;;;;;;2.30;1.60;;;17.60;57.50;;;;;;10413912;28;20034;-55
2022/02/12 09:07:43;;;;;;;2.00;1.23;;;17.60;57.60;;;;;;10412434;28;20658;-55
2022/02/12 09:12:44;;;;;;;2.15;1.60;;;17.60;57.60;;;;;;10413381;28;20083;-55
2022/02/12 09:17:45;;;;;;;3.15;1.27;;;17.50;57.70;;;;;;10413366;28;20052;-56
2022/02/12 09:22:46;;;;;;;3.95;1.67;;;17.50;57.90;;;;;;10412699;28;20037;-55
2022/02/12 09:27:47;;;;;;;2.40;1.17;;;17.40;58.00;;;;;;10411914;28;20035;-55
2022/02/12 09:32:47;;;;;;;3.55;1.88;;;17.40;58.30;;;;;;10417613;28;20123;-53
2022/02/12 09:37:48;;;;;;;3.65;1.83;;;17.40;58.50;;;;;;10414109;28;20033;-54
2022/02/12 09:42:50;;;;;;;2.22;1.15;;;17.40;58.70;;;;;;10411714;28;20121;-54
2022/02/12 09:47:51;;;;;;;2.30;1.30;;;17.30;58.50;;;;;;10427927;28;20025;-54
2022/02/12 09:52:54;;;;;;;3.47;1.42;;;17.30;59.30;;;;;;10405181;28;20037;-55
2022/02/12 09:57:55;;;;;;;1.85;1.00;;;17.30;59.20;;;;;;10427413;28;20488;-54
2022/02/12 10:02:56;;;;;;;1.95;1.23;;;17.30;59.50;;;;;;10427435;28;20049;-53
2022/02/12 10:08:02;;;;;;;2.33;1.38;;;17.30;59.50;;;;;;10412248;28;20029;-54
2022/02/12 10:13:12;;;;;;;2.75;1.85;;;17.40;59.60;;;;;;10411548;28;20519;-54
2022/02/12 10:18:13;;;;;;;2.70;1.38;;;17.30;59.50;;;;;;10410621;28;20128;-53
2022/02/12 10:23:17;;;;;;;2.30;1.00;;;17.30;59.60;;;;;;10411995;28;20397;-54
2022/02/12 10:28:19;;;;;;;2.00;1.20;;;17.30;59.60;;;;;;10416955;28;20033;-55
2022/02/12 10:33:19;;;;;;;2.67;1.27;;;17.30;59.70;;;;;;10412728;28;20132;-54
2022/02/12 10:38:23;;;;;;;2.67;1.35;;;17.30;59.80;;;;;;10460983;28;20099;-55
2022/02/12 10:43:23;;;;;;;2.13;1.10;;;17.20;60.00;;;;;;10457373;28;20489;-55
2022/02/12 10:48:25;;;;;;;2.67;1.50;;;17.20;60.00;;;;;;10417819;28;20033;-54
2022/02/12 10:53:26;;;;;;;3.58;1.38;;;17.20;60.20;;;;;;10417085;28;20116;-53
2022/02/12 10:58:27;;;;;;;2.75;1.48;;;17.20;60.20;;;;;;10400995;28;20044;-55
2022/02/12 11:03:33;;;;;;;2.92;1.60;;;17.20;60.20;;;;;;10400674;28;20052;-54
2022/02/12 11:08:34;;;;;;;2.83;1.42;;;17.10;60.30;;;;;;10433851;28;20035;-55
2022/02/12 11:13:38;;;;;;;2.42;1.33;;;17.10;60.40;;;;;;10416124;28;20040;-54
2022/02/12 11:18:39;;;;;;;2.88;1.38;;;17.10;60.40;;;;;;10417087;28;20037;-55
2022/02/12 11:23:40;;;;;;;3.60;1.85;;;17.10;60.50;;;;;;10415597;28;20036;-55
2022/02/12 11:28:41;;;;;;;2.47;1.40;;;17.10;60.50;;;;;;10417521;28;20065;-55
2022/02/12 11:34:17;;;;;;;3.10;1.50;;;17.10;60.60;;;;;;10406299;28;20414;-53
2022/02/12 11:39:27;;;;;;;3.47;1.27;;;17.10;60.70;;;;;;10417279;28;20494;-57
2022/02/12 11:44:46;;;;;;;1.60;1.38;;;17.10;60.70;;;;;;10358539;28;20442;-56
2022/02/12 11:49:46;;;;;;;3.30;1.55;;;17.10;60.60;;;;;;10375840;28;20030;-55
2022/02/12 11:55:02;;;;;;;2.47;1.42;;;17.10;60.60;;;;;;10405221;28;20492;-56
2022/02/12 12:00:03;;;;;;;4.90;1.67;;;17.10;60.50;;;;;;10416486;28;20029;-55
2022/02/12 12:05:15;;;;;;;2.53;1.40;;;17.10;60.60;;;;;;10415958;28;20039;-54
2022/02/12 12:10:16;;;;;;;2.55;1.50;;;17.20;60.50;;;;;;10415992;28;20083;-54
2022/02/12 12:15:26;;;;;;;2.25;1.20;;;17.20;60.50;;;;;;10430402;28;20720;-53
2022/02/12 12:20:37;;;;;;;;;;;17.20;60.60;;;;;;10430705;28;20044;-54
2022/02/12 12:26:00;;;;;;;4.00;1.98;;;17.20;60.60;;;;;;10414305;28;19916;-54
2022/02/12 12:31:10;;;;;;;2.25;1.20;;;17.20;60.50;;;;;;10412082;28;20106;-55
2022/02/12 12:36:17;;;;;;;2.65;1.40;;;17.20;60.50;;;;;;10448415;28;20033;-55
2022/02/12 12:41:30;;;;;;;2.35;1.25;;;17.20;60.50;;;;;;10434435;28;20040;-55
2022/02/12 12:46:34;;;;;;;2.25;1.33;;;17.20;60.40;;;;;;10428871;28;20053;-55
2022/02/12 12:51:49;;;;;;;2.22;1.17;;;17.20;60.50;;;;;;10413040;28;20109;-54
2022/02/12 12:56:50;;;;;;;1.70;1.10;;;17.20;60.50;;;;;;10413683;28;20025;-54
2022/02/12 13:02:02;;;;;;;2.63;1.20;;;17.20;60.60;;;;;;10412251;28;20037;-55
2022/02/12 13:07:04;;;;;;;1.75;1.50;;;17.20;60.60;;;;;;10411987;28;20038;-55
2022/02/12 13:12:34;;;;;;;1.63;1.08;;;17.20;60.70;;;;;;10412810;28;20026;-55
2022/02/12 13:17:54;;;;;;;2.40;1.27;;;17.20;60.70;;;;;;10412929;28;20117;-54
2022/02/12 13:22:59;;;;;;;;;;;17.20;60.80;;;;;;10412125;28;20036;-55
2022/02/12 13:27:59;;;;;;;2.45;0.95;;;17.10;60.80;;;;;;10412601;28;19998;-54
2022/02/12 13:33:04;;;;;;;4.00;1.30;;;17.20;60.90;;;;;;10419137;28;20175;-55
2022/02/12 13:38:07;;;;;;;1.98;1.00;;;17.10;60.90;;;;;;10452431;28;20044;-55
2022/02/12 13:43:10;;;;;;;2.40;1.42;;;17.10;61.00;;;;;;10411015;28;20142;-55
2022/02/12 13:48:23;;;;;;;2.15;1.42;;;17.10;61.60;;;;;;10412444;28;20076;-55
2022/02/12 13:53:27;;;;;;;1.80;1.13;;;17.10;61.10;;;;;;10411041;28;20033;-54
2022/02/12 13:58:29;;;;;;;1.63;1.02;;;17.10;61.20;;;;;;10411869;28;20424;-53
2022/02/12 14:03:30;;;;;;;1.90;1.10;;;17.00;61.20;;;;;;10417475;28;20025;-55
2022/02/12 14:08:32;;;;;;;2.28;1.05;;;17.00;61.20;;;;;;10418762;28;20110;-55
2022/02/12 14:13:33;;;;;;;2.25;1.08;;;17.00;61.30;;;;;;10419520;28;20030;-54
2022/02/12 14:18:33;;;;;;;1.80;1.08;;;16.90;61.30;;;;;;10420473;28;20377;-55
2022/02/12 14:23:34;;;;;;;2.45;1.35;;;16.90;61.40;;;;;;10418795;28;20428;-56
2022/02/12 14:28:35;;;;;;;2.38;1.10;;;16.90;61.40;;;;;;10418825;28;20393;-55
2022/02/12 14:33:37;;;;;;;2.67;1.27;;;16.90;61.50;;;;;;10432524;28;20133;-55
2022/02/12 14:38:38;;;;;;;2.63;1.08;;;16.90;61.50;;;;;;10459788;28;20028;-54
2022/02/12 14:43:39;;;;;;;2.13;1.08;;;16.80;61.50;;;;;;10438414;28;20040;-55
2022/02/12 14:48:40;;;;;;;1.77;1.00;;;16.80;61.50;;;;;;10401463;28;20025;-55
2022/02/12 14:53:43;;;;;;;3.28;1.48;;;16.80;61.60;;;;;;10418781;28;20029;-55
2022/02/12 14:58:43;;;;;;;2.72;1.00;;;16.80;61.50;;;;;;10418923;28;20036;-56
2022/02/12 15:03:44;;;;;;;2.08;1.00;;;16.70;61.50;;;;;;10418290;28;20111;-55
2022/02/12 15:08:46;;;;;;;2.90;1.17;;;16.70;61.40;;;;;;10391840;28;20045;-55
2022/02/12 15:13:47;;;;;;;1.98;1.00;;;16.80;61.40;;;;;;10399458;28;20390;-56
2022/02/12 15:18:48;;;;;;;3.03;1.15;;;16.80;61.00;;;;;;10416451;28;20104;-55
2022/02/12 15:23:48;;;;;;;4.07;1.17;;;16.90;60.60;;;;;;10431744;28;20105;-56
2022/02/12 15:28:49;;;;;;;4.65;1.13;;;16.90;60.30;;;;;;10416233;28;20505;-54
2022/02/12 15:33:50;;;;;;;3.78;1.50;;;17.00;60.00;;;;;;10432374;28;20115;-55
2022/02/12 15:38:50;;;;;;;2.65;1.17;;;17.00;59.80;;;;;;10458478;28;20028;-56
2022/02/12 15:43:51;;;;;;;3.05;1.30;;;17.10;59.50;;;;;;10415443;28;20116;-56
2022/02/12 15:48:52;;;;;;;4.03;1.17;;;17.10;59.30;;;;;;10387483;28;20041;-55
2022/02/12 15:53:53;;;;;;;5.65;1.60;;;17.10;58.10;;;;;;10379854;28;20041;-55
2022/02/12 15:58:54;;;;;;;4.43;1.52;;;17.10;57.50;;;;;;10412569;28;20025;-57
2022/02/12 16:03:55;;;;;;;11.43;1.63;;;17.10;58.10;;;;;;10410773;28;20028;-55
2022/02/12 16:08:56;;;;;;;5.80;1.40;;;17.20;58.40;;;;;;10390771;28;20036;-53
2022/02/12 16:13:56;;;;;;;3.28;1.25;;;17.20;58.10;;;;;;10392265;28;20584;-54
2022/02/12 16:18:57;;;;;;;3.83;1.17;;;17.10;58.20;;;;;;10412813;28;20075;-54
2022/02/12 16:23:59;;;;;;;4.65;1.55;;;17.20;58.20;;;;;;10410794;28;20116;-54
2022/02/12 16:29:00;;;;;;;3.58;1.20;;;17.20;58.20;;;;;;10424863;28;20033;-54
2022/02/12 16:34:01;;;;;;;5.65;1.35;;;17.20;58.20;;;;;;10427826;28;20506;-53
2022/02/12 16:39:04;;;;;;;4.43;1.27;;;17.20;58.20;;;;;;10450059;28;20082;-55
2022/02/12 16:44:05;;;;;;;3.10;1.17;;;17.20;58.30;;;;;;10413388;28;20040;-53
2022/02/12 16:49:05;;;;;;;2.50;1.10;;;17.20;58.30;;;;;;10413414;28;20028;-54
2022/02/12 16:54:06;;;;;;;2.20;1.20;;;17.30;58.30;;;;;;10414045;28;20572;-55
2022/02/12 16:59:07;;;;;;;2.75;1.15;;;17.30;58.40;;;;;;10412534;28;20051;-53
2022/02/12 17:04:09;;;;;;;1.75;1.00;;;17.30;58.30;;;;;;10429127;28;20116;-54
2022/02/12 17:09:10;;;;;;;2.03;1.00;;;17.20;58.40;;;;;;10412994;28;20026;-53
2022/02/12 17:14:11;;;;;;;2.60;1.23;;;17.20;58.30;;;;;;10412197;28;20048;-53
2022/02/12 17:19:11;;;;;;;2.50;0.93;;;17.20;58.30;;;;;;10413572;28;20034;-53
2022/02/12 17:24:12;;;;;;;1.98;1.13;;;17.20;58.40;;;;;;10413722;28;20383;-55
2022/02/12 17:29:13;;;;;;;2.75;1.30;;;17.30;58.40;;;;;;10412053;28;20424;-53
2022/02/12 17:34:13;;;;;;;2.45;1.00;;;17.30;58.40;;;;;;10431843;28;20053;-53
2022/02/12 17:39:14;;;;;;;3.97;1.33;;;17.30;58.40;;;;;;10443185;28;20116;-54
2022/02/12 17:44:15;;;;;;;5.75;1.23;;;17.30;58.50;;;;;;10425513;28;20037;-54
2022/02/12 17:49:17;;;;;;;2.17;0.80;;;17.30;58.30;;;;;;10425466;28;20052;-54
2022/02/12 17:54:17;;;;;;;2.75;1.02;;;17.30;58.30;;;;;;10442143;28;20026;-53
2022/02/12 17:59:18;;;;;;;2.42;1.13;;;17.30;58.90;;;;;;10441911;28;20026;-55
2022/02/12 18:04:19;;;;;;;1.88;1.08;;;17.30;58.30;;;;;;10425334;28;20121;-55
2022/02/12 18:09:38;;;;;;;3.75;1.10;;;17.30;58.20;;;;;;10426002;28;20037;-54
2022/02/12 18:14:41;;;;;;;1.97;1.20;;;17.30;58.20;;;;;;10426321;28;20034;-55
2022/02/12 18:19:42;;;;;;;2.42;1.10;;;17.30;58.20;;;;;;10441124;28;20043;-55
2022/02/12 18:24:43;;;;;;;2.40;1.30;;;17.30;58.20;;;;;;10441617;28;20489;-54
2022/02/12 18:29:43;;;;;;;1.52;0.82;;;17.30;58.20;;;;;;10422982;28;20033;-53
2022/02/12 18:34:45;;;;;;;4.70;1.27;;;17.30;58.10;;;;;;10421046;28;20041;-54
2022/02/12 18:39:46;;;;;;;4.40;1.25;;;17.30;57.90;;;;;;10413035;28;20504;-55
2022/02/12 18:44:47;;;;;;;3.78;1.20;;;17.40;57.50;;;;;;10422399;28;20043;-54
2022/02/12 18:49:49;;;;;;;5.88;1.73;;;17.30;57.00;;;;;;10417406;28;20044;-55
2022/02/12 18:54:50;;;;;;;4.90;1.13;;;17.40;57.30;;;;;;10418897;28;20026;-54
2022/02/12 18:59:50;;;;;;;3.80;1.25;;;17.50;57.30;;;;;;10417194;28;20029;-55
2022/02/12 19:04:52;;;;;;;4.95;1.55;;;17.50;57.30;;;;;;10418610;28;20055;-53
2022/02/12 19:09:53;;;;;;;4.47;1.63;;;17.50;57.50;;;;;;10400330;28;20037;-55
2022/02/12 19:14:53;;;;;;;4.65;1.67;;;17.50;57.60;;;;;;10413919;28;20079;-55
2022/02/12 19:19:54;;;;;;;2.45;1.05;;;17.40;57.70;;;;;;10417482;28;20116;-57
2022/02/12 19:24:55;;;;;;;4.07;1.42;;;17.40;57.80;;;;;;10417874;28;20025;-54
2022/02/12 19:29:56;;;;;;;3.08;1.42;;;17.50;58.00;;;;;;10399558;28;20061;-54
2022/02/12 19:34:57;;;;;;;2.70;1.58;;;17.50;58.10;;;;;;10419993;28;20175;-54
2022/02/12 19:39:58;;;;;;;2.90;1.40;;;17.50;58.20;;;;;;10416491;28;20114;-54
2022/02/12 19:44:59;;;;;;;6.47;1.70;;;17.50;58.40;;;;;;10431922;28;20167;-56
2022/02/12 19:50:00;;;;;;;2.90;1.60;;;17.60;59.10;;;;;;10415052;28;20038;-56
2022/02/12 19:55:05;;;;;;;3.40;1.45;;;17.60;59.00;;;;;;10413807;28;20029;-54
2022/02/12 20:00:12;;;;;;;3.38;1.50;;;17.50;58.90;;;;;;10411243;28;20116;-55
2022/02/12 20:05:14;;;;;;;3.13;1.90;;;17.50;59.00;;;;;;10413403;28;20026;-56
2022/02/12 20:10:16;;;;;;;2.78;1.55;;;17.50;59.00;;;;;;10410246;28;20175;-56
2022/02/12 20:15:16;;;;;;;4.85;1.85;;;17.50;59.00;;;;;;10419913;28;20033;-56
2022/02/12 20:20:17;;;;;;;4.00;1.65;;;17.50;59.00;;;;;;10413714;28;20474;-56
2022/02/12 20:25:18;;;;;;;3.78;1.40;;;17.50;58.80;;;;;;10421968;28;20021;-56
2022/02/12 20:30:22;;;;;;;4.88;1.63;;;17.50;58.70;;;;;;10394185;28;20555;-56
2022/02/12 20:35:24;;;;;;;2.40;1.25;;;17.60;58.60;;;;;;10415528;28;20363;-56
2022/02/12 20:40:25;;;;;;;3.33;1.70;;;17.50;58.50;;;;;;10412367;28;20458;-55
2022/02/12 20:45:25;;;;;;;2.13;1.25;;;17.60;58.40;;;;;;10413939;28;20025;-55
2022/02/12 20:50:26;;;;;;;2.67;1.77;;;17.60;58.30;;;;;;10413336;28;20458;-56
2022/02/12 20:55:27;;;;;;;2.50;1.60;;;17.60;58.20;;;;;;10406115;28;20022;-56
2022/02/12 21:00:28;;;;;;;2.45;1.35;;;17.60;58.10;;;;;;10389306;28;20026;-54
2022/02/12 21:05:29;;;;;;;2.28;1.33;;;17.60;58.10;;;;;;10372351;28;20041;-55
2022/02/12 21:10:29;;;;;;;2.50;1.30;;;17.70;57.90;;;;;;10411134;28;20400;-55
2022/02/12 21:15:30;;;;;;;3.75;1.50;;;17.60;57.90;;;;;;10413717;28;20040;-55
2022/02/12 21:20:31;;;;;;;2.60;1.38;;;17.60;57.90;;;;;;10413689;28;20026;-55
2022/02/12 21:25:32;;;;;;;3.05;1.65;;;17.50;57.90;;;;;;10412258;28;20389;-56
2022/02/12 21:30:33;;;;;;;2.08;1.23;;;17.60;58.00;;;;;;10412046;28;20445;-56
2022/02/12 21:35:33;;;;;;;3.28;1.20;;;17.60;57.90;;;;;;10442809;28;20382;-55
2022/02/12 21:40:34;;;;;;;2.92;1.45;;;17.70;57.70;;;;;;10412656;28;20493;-55
2022/02/12 21:45:35;;;;;;;1.80;1.30;;;17.70;57.70;;;;;;10413234;28;20496;-54
2022/02/12 21:50:35;;;;;;;2.60;1.55;;;17.60;57.60;;;;;;10411666;28;20099;-55
2022/02/12 21:55:36;;;;;;;2.33;1.13;;;17.60;57.60;;;;;;10411343;28;20025;-55
2022/02/12 22:00:37;;;;;;;2.83;1.40;;;17.60;57.60;;;;;;10411462;28;20036;-55
2022/02/12 22:05:41;;;;;;;2.33;1.45;;;17.60;57.60;;;;;;10411767;28;20036;-54
2022/02/12 22:10:41;;;;;;;1.60;1.17;;;17.60;57.60;;;;;;10411401;28;20029;-55
2022/02/12 22:15:42;;;;;;;2.95;1.20;;;17.70;57.40;;;;;;10411168;28;20037;-56
2022/02/12 22:20:43;;;;;;;2.28;1.30;;;17.70;57.20;;;;;;10411115;28;20033;-55
2022/02/12 22:25:44;;;;;;;2.17;1.42;;;17.70;57.20;;;;;;10394114;28;20432;-55
2022/02/12 22:30:44;;;;;;;3.38;1.63;;;17.70;57.30;;;;;;10419019;28;20054;-55
2022/02/12 22:35:45;;;;;;;2.72;1.30;;;17.70;57.20;;;;;;10466297;28;20082;-56
2022/02/12 22:40:46;;;;;;;3.95;1.67;;;17.70;57.30;;;;;;10449804;28;20026;-56
2022/02/12 22:45:47;;;;;;;1.83;1.10;;;17.70;57.20;;;;;;10419548;28;20034;-55
2022/02/12 22:50:48;;;;;;;3.28;1.77;;;17.60;57.20;;;;;;10417877;28;20030;-56
2022/02/12 22:55:48;;;;;;;1.92;1.27;;;17.60;57.20;;;;;;10417734;28;20113;-55
2022/02/12 23:00:59;;;;;;;2.50;1.33;;;17.60;57.20;;;;;;10417216;28;20053;-56
2022/02/12 23:06:00;;;;;;;2.03;1.00;;;17.60;57.20;;;;;;10417568;28;20473;-55
2022/02/12 23:11:01;;;;;;;2.20;1.13;;;17.70;57.10;;;;;;10433672;28;20044;-55
2022/02/12 23:16:07;;;;;;;2.72;1.33;;;17.70;56.90;;;;;;10433505;28;20037;-56
2022/02/12 23:21:09;;;;;;;2.75;1.50;;;17.70;56.80;;;;;;10433421;28;20112;-55
2022/02/12 23:26:10;;;;;;;2.10;1.30;;;17.70;56.80;;;;;;10433474;28;20116;-55
2022/02/12 23:31:11;;;;;;;2.08;1.20;;;17.70;56.70;;;;;;10432806;28;20128;-55
2022/02/12 23:36:12;;;;;;;2.28;1.27;;;17.70;56.70;;;;;;10451764;28;20086;-55
2022/02/12 23:41:13;;;;;;;1.80;0.90;;;17.70;56.80;;;;;;10456657;28;20033;-56
2022/02/12 23:46:14;;;;;;;2.00;1.10;;;17.70;56.60;;;;;;10416063;28;20033;-55
2022/02/12 23:51:16;;;;;;;1.48;1.10;;;17.70;56.60;;;;;;10415907;28;20037;-55
2022/02/12 23:56:16;;;;;;;3.00;1.65;;;17.70;56.60;;;;;;10415360;28;20044;-56
